Circle, Montana
Current Conditions -  °F | °C
As of 10:35 PM on Saturday 22 Nov 2014 (Local Time) from KGDV Reporting Station
Clear Clear  
Wind Chill: 23°   Ceiling: Unl
Heat Index: 36°   Visibility: 10mi
Dew Point: 30°   Wind: 28mph
Humidity: 81%   Direction: 270°W
Pressure: 29.41"   Gusts: 36mph
Location:  47.42°N, 105.59°W
Report Text: KGDV 230535Z AUTO 27024G31KT 10SM CLR 02/M01 A2941 RMK AO1
Loading
Personal Weather Stations






























Interactive Weather Map New forecast layout! Learn more

10-Day Weather Forecast

Advertisements
Track Severe Weather on mobile